Terminal Aerodrome Forecast
Issued by NWS

Home | Current Version | Previous Version | Text Only | Print | Product List | Glossary On
Versions: 1 2 3 4 5 6 7 8 9 10 11 12 13 14 15
000
FTUS43 KMQT 301100
TAFSAW
TAF
KSAW 301137Z 3012/0112 01011KT P6SM OVC012
     FM301700 02011KT P6SM OVC020
     FM302100 03007KT P6SM SCT025
     FM010100 VRB03KT P6SM SKC
     FM010600 16003KT P6SM OVC010
     FM010900 16003KT P6SM OVC006
      AMD LTD TO CLD VIS AND WIND 0102/0110=

USA.gov is the U.S. government's official web portal to all federal, state and local government web resources and services.